createdAt,value
2023-07-19T00:04:17.065Z,45600.28
2023-07-19T00:09:20.630Z,49457.03
2023-07-19T00:14:24.158Z,53868.22
2023-07-19T00:19:29.028Z,58348.06
2023-07-19T00:24:32.623Z,59954.97
2023-07-19T00:29:36.171Z,61054.06
2023-07-19T00:34:42.150Z,63292.25
2023-07-19T00:39:45.647Z,65941.84
2023-07-19T00:44:49.933Z,68141.56
2023-07-19T00:49:54.968Z,69399.69
2023-07-19T00:54:58.834Z,76605.38
2023-07-19T01:00:02.989Z,78320.94
2023-07-19T01:05:08.665Z,75760.25
2023-07-19T01:10:14.009Z,76361.53
2023-07-19T01:15:17.546Z,73329.19
2023-07-19T01:20:22.566Z,73880.53
2023-07-19T01:25:27.539Z,73453.09
2023-07-19T01:30:31.381Z,74657.09
2023-07-19T01:35:35.014Z,72292.78
2023-07-19T01:40:40.239Z,72317.56
2023-07-19T01:45:44.446Z,73692.63
2023-07-19T01:50:49.197Z,71927.41
2023-07-19T01:55:54.073Z,70398.19
2023-07-19T02:00:57.681Z,75774.72
2023-07-19T02:06:02.231Z,78128.69
2023-07-19T02:11:07.253Z,75801.56
2023-07-19T02:16:10.840Z,77062.09
2023-07-19T02:21:14.391Z,78831.63
2023-07-19T02:26:19.267Z,78422.25
2023-07-19T02:31:23.190Z,79844.91
2023-07-19T02:36:28.438Z,78246.53
2023-07-19T02:41:33.799Z,80637.13
2023-07-19T02:46:39.140Z,81179.13
2023-07-19T02:51:42.680Z,79991.75
2023-07-19T02:56:47.510Z,77828.94
2023-07-19T03:01:51.092Z,82099.88
2023-07-19T03:06:54.928Z,85853.38
2023-07-19T03:11:59.940Z,87013.47
2023-07-19T03:17:04.030Z,88640.22
2023-07-19T03:22:07.652Z,90993.47
2023-07-19T03:27:12.571Z,92146.72
2023-07-19T03:32:17.034Z,92358.34
2023-07-19T03:37:20.593Z,94734.50
2023-07-19T03:42:25.593Z,93171.69
2023-07-19T03:47:29.605Z,91777.47
2023-07-19T03:52:33.226Z,91918.53
2023-07-19T03:57:38.315Z,93773.50
2023-07-19T04:02:43.079Z,97348.84
2023-07-19T04:07:47.483Z,100600.97
2023-07-19T04:12:52.346Z,99798.59
2023-07-19T04:17:56.261Z,99237.44
2023-07-19T04:23:00.007Z,96875.25
2023-07-19T04:28:05.368Z,98169.41
2023-07-19T04:33:09.490Z,100021.00
2023-07-19T04:38:13.258Z,101530.31
2023-07-19T04:43:18.214Z,102836.34
2023-07-19T04:48:27.673Z,103414.63
2023-07-19T04:53:31.695Z,103693.41
2023-07-19T04:58:37.178Z,102655.41
2023-07-19T05:03:43.687Z,103822.41
2023-07-19T05:08:47.332Z,101713.31
2023-07-19T05:13:52.536Z,99407.88
2023-07-19T05:18:56.256Z,101035.47
2023-07-19T05:24:00.672Z,98838.47
2023-07-19T05:29:06.420Z,99937.84
2023-07-19T05:34:10.121Z,98506.00
2023-07-19T05:39:13.638Z,96223.16
2023-07-19T05:44:19.076Z,93304.47
2023-07-19T05:49:22.601Z,89316.00
2023-07-19T05:54:26.181Z,88146.94
2023-07-19T05:59:31.592Z,88567.69
2023-07-19T06:04:35.252Z,86916.09
2023-07-19T06:09:39.035Z,83884.06
2023-07-19T06:14:43.886Z,80355.78
2023-07-19T06:19:47.376Z,78110.06
2023-07-19T06:24:51.532Z,67114.75
2023-07-19T06:29:56.628Z,45733.56
2023-07-19T06:35:00.149Z,35586.22
2023-07-19T06:40:05.160Z,28467.00
2023-07-19T06:45:11.522Z,26828.00
2023-07-19T06:50:15.077Z,25301.84
2023-07-19T06:55:18.750Z,24000.63
2023-07-19T07:00:24.091Z,28616.03
2023-07-19T07:05:27.621Z,29451.16
2023-07-19T07:10:31.191Z,29251.03
2023-07-19T07:15:36.082Z,29969.88
2023-07-19T07:20:39.712Z,30231.28
2023-07-19T07:25:43.208Z,28479.25
2023-07-19T07:30:48.149Z,27321.88
2023-07-19T07:35:51.696Z,26993.28
2023-07-19T07:41:00.652Z,23645.81
2023-07-19T07:46:05.586Z,30854.28
2023-07-19T07:51:09.411Z,40039.22
2023-07-19T07:56:12.891Z,44116.00
2023-07-19T08:01:17.913Z,47971.31
2023-07-19T08:06:21.831Z,49834.72
2023-07-19T08:11:26.279Z,50774.94
2023-07-19T08:16:31.462Z,50035.88
2023-07-19T08:21:37.510Z,49286.69
2023-07-19T08:26:42.047Z,49182.00
2023-07-19T08:31:47.032Z,50454.66
2023-07-19T08:36:52.002Z,51109.63
2023-07-19T08:41:55.961Z,51290.31
2023-07-19T08:47:03.586Z,51064.44
2023-07-19T08:52:09.495Z,51015.16
2023-07-19T08:57:13.329Z,50618.91
2023-07-19T09:02:18.312Z,49978.41
2023-07-19T09:07:21.909Z,48549.94
2023-07-19T09:12:25.460Z,47938.50
2023-07-19T09:17:31.399Z,48993.19
2023-07-19T09:22:37.034Z,49645.88
2023-07-19T09:27:44.049Z,50795.47
2023-07-19T09:32:59.893Z,51275.94
2023-07-19T09:38:04.500Z,51436.13
2023-07-19T09:43:08.625Z,50803.69
2023-07-19T09:48:14.816Z,49990.72
2023-07-19T09:53:18.933Z,49452.94
2023-07-19T09:58:23.853Z,48911.13
2023-07-19T10:03:28.757Z,49912.72
2023-07-19T10:08:32.472Z,50489.56
2023-07-19T10:14:06.358Z,50349.97
2023-07-19T10:19:15.367Z,49760.81
2023-07-19T10:24:20.026Z,50218.56
2023-07-19T10:29:26.184Z,49803.91
2023-07-19T10:34:43.762Z,49957.88
2023-07-19T10:39:49.334Z,49136.88
2023-07-19T10:44:53.186Z,49863.44
2023-07-19T10:49:58.166Z,49093.75
2023-07-19T10:55:15.681Z,48898.81
2023-07-19T11:00:25.525Z,47355.84
2023-07-19T11:05:30.511Z,46861.50
2023-07-19T11:10:34.298Z,45099.97
2023-07-19T11:15:37.779Z,44538.25
2023-07-19T11:20:42.725Z,43779.88
2023-07-19T11:25:46.357Z,43230.63
2023-07-19T11:30:49.998Z,41562.91
2023-07-19T11:35:55.070Z,43406.88
2023-07-19T11:41:01.373Z,45194.28
2023-07-19T11:46:05.157Z,45624.88
2023-07-19T11:51:10.114Z,43673.28
2023-07-19T11:56:13.639Z,40721.13
2023-07-19T12:01:20.358Z,38358.50
2023-07-19T12:06:26.301Z,37572.66
2023-07-19T12:11:30.361Z,38829.28
2023-07-19T12:16:33.963Z,38835.44
2023-07-19T12:21:39.235Z,38266.41
2023-07-19T12:26:42.758Z,39736.19
2023-07-19T12:31:46.709Z,41778.00
2023-07-19T12:36:51.790Z,40213.25
2023-07-19T12:41:56.479Z,34993.13
2023-07-19T12:47:00.034Z,34336.75
2023-07-19T12:52:05.544Z,31459.00
2023-07-19T12:57:09.389Z,31248.56
2023-07-19T13:02:13.171Z,32045.44
2023-07-19T13:07:18.167Z,32063.81
2023-07-19T13:12:21.740Z,32237.50
2023-07-19T13:17:25.389Z,33750.00
2023-07-19T13:22:30.383Z,33212.38
2023-07-19T13:27:34.038Z,31023.84
2023-07-19T13:32:37.760Z,30936.00
2023-07-19T13:42:49.353Z,30398.78
2023-07-19T13:47:52.939Z,31244.50
2023-07-19T13:52:57.909Z,31685.81
2023-07-19T13:58:01.496Z,32337.66
2023-07-19T14:03:05.278Z,33108.16
2023-07-19T14:08:10.357Z,35001.31
2023-07-19T14:13:28.986Z,35958.47
2023-07-19T14:18:36.626Z,35778.47
2023-07-19T14:23:41.994Z,35498.28
2023-07-19T14:28:45.531Z,33613.03
2023-07-19T14:33:49.092Z,34770.25
2023-07-19T14:38:54.323Z,32372.38
2023-07-19T14:43:57.848Z,27454.53
2023-07-19T14:49:01.603Z,28260.81
2023-07-19T14:54:06.879Z,29261.25
2023-07-19T14:59:10.481Z,30231.28
2023-07-19T15:04:16.016Z,30842.03
2023-07-19T15:09:21.096Z,30656.16
2023-07-19T15:14:24.712Z,30110.78
2023-07-19T15:19:28.376Z,30135.31
2023-07-19T15:24:33.312Z,31689.88
2023-07-19T15:29:36.819Z,32155.78
2023-07-19T15:34:40.373Z,33627.34
2023-07-19T15:39:46.110Z,38649.16
2023-07-19T15:44:49.697Z,39287.81
2023-07-19T15:49:53.307Z,39312.41
2023-07-19T15:54:58.516Z,40690.41
2023-07-19T16:00:02.078Z,40186.66
2023-07-19T16:05:08.436Z,41126.63
2023-07-19T16:10:13.536Z,42640.50
2023-07-19T16:15:17.184Z,43646.66
2023-07-19T16:20:20.885Z,43070.81
2023-07-19T16:25:25.879Z,44612.06
2023-07-19T16:30:29.487Z,45300.91
2023-07-19T16:35:33.816Z,45489.53
2023-07-19T16:40:39.488Z,45229.16
2023-07-19T16:45:43.068Z,44005.31
2023-07-19T16:50:46.729Z,43909.00
2023-07-19T16:55:51.973Z,43909.00
2023-07-19T17:00:55.600Z,43665.09
2023-07-19T17:05:59.227Z,43517.53
2023-07-19T17:11:04.223Z,42980.63
2023-07-19T17:16:08.156Z,41915.25
2023-07-19T17:21:14.056Z,41134.81
2023-07-19T17:26:19.110Z,40321.78
2023-07-19T17:31:22.879Z,39863.13
2023-07-19T17:36:26.716Z,39891.78
2023-07-19T17:41:31.722Z,40217.34
2023-07-19T17:46:35.309Z,40254.22
2023-07-19T17:51:39.001Z,40714.97
2023-07-19T17:56:44.239Z,40678.13
2023-07-19T18:01:47.802Z,40344.31
2023-07-19T18:06:51.390Z,39940.94
2023-07-19T18:11:56.374Z,39584.69
2023-07-19T18:17:00.921Z,38886.59
2023-07-19T18:22:06.458Z,37902.13
2023-07-19T18:27:11.404Z,37402.81
2023-07-19T18:32:15.448Z,36803.31
2023-07-19T18:37:19.011Z,36367.56
2023-07-19T18:42:23.923Z,35870.50
2023-07-19T18:47:27.543Z,35629.16
2023-07-19T18:52:31.121Z,35815.28
2023-07-19T18:57:35.991Z,35692.56
2023-07-19T19:02:39.631Z,35438.97
2023-07-19T19:07:45.840Z,35434.88
2023-07-19T19:12:51.014Z,35306.03
2023-07-19T19:17:54.563Z,35207.84
2023-07-19T19:22:58.172Z,34987.00
2023-07-19T19:28:03.806Z,34829.53
2023-07-19T19:33:07.418Z,34927.69
2023-07-19T19:38:10.965Z,34633.25
2023-07-19T19:43:16.219Z,35312.16
2023-07-19T19:48:19.739Z,35510.53
2023-07-19T19:53:26.745Z,36930.19
2023-07-19T19:58:32.182Z,37449.88
2023-07-19T20:03:36.203Z,37869.38
2023-07-19T20:08:41.956Z,37574.72
2023-07-19T20:13:49.420Z,37945.09
2023-07-19T20:18:52.950Z,37460.13
2023-07-19T20:23:56.560Z,37730.22
2023-07-19T20:44:22.742Z,39756.66
2023-07-19T20:49:26.317Z,39064.69
2023-07-19T20:54:29.898Z,39343.09
2023-07-19T20:59:35.082Z,38839.53
2023-07-19T21:04:39.506Z,39535.53
2023-07-19T21:09:43.090Z,39459.78
2023-07-19T21:14:47.989Z,41145.06
2023-07-19T21:19:51.559Z,42665.09
2023-07-19T21:30:02.965Z,41337.59
2023-07-19T21:35:07.103Z,43001.13
2023-07-19T21:40:11.137Z,42808.50
2023-07-19T21:45:16.247Z,45694.59
2023-07-19T21:50:19.977Z,44077.06
2023-07-19T21:55:23.524Z,44513.66
2023-07-19T22:00:41.627Z,44839.63
2023-07-19T22:05:47.260Z,47739.50
2023-07-19T22:10:51.038Z,49245.63
2023-07-19T22:15:55.940Z,48724.38
2023-07-19T22:21:15.502Z,50427.97
2023-07-19T22:26:24.148Z,53085.41
2023-07-19T22:31:29.663Z,56464.22
2023-07-19T22:36:33.460Z,54932.72
2023-07-19T22:41:36.991Z,57735.09
2023-07-19T22:46:43.337Z,57572.63
2023-07-19T22:51:46.896Z,58051.84
2023-07-19T22:56:50.409Z,58080.66
2023-07-19T23:01:55.347Z,57683.69
2023-07-19T23:06:58.878Z,58090.94
2023-07-19T23:12:02.480Z,59304.72
2023-07-19T23:17:07.573Z,59891.19
2023-07-19T23:22:11.126Z,59195.69
2023-07-19T23:27:15.493Z,63621.81
2023-07-19T23:32:20.404Z,69022.19
2023-07-19T23:37:24.821Z,72658.19
2023-07-19T23:42:28.533Z,81259.81
2023-07-19T23:47:33.575Z,87560.47
2023-07-19T23:52:37.181Z,92617.69
2023-07-19T23:57:41.509Z,95064.56
